Eagle River, WI

12:47 AM CST on February 01, 2015 (GMT -0600)
Eagle River Union | Change Station
CLOSE
Current Station
Airport
Location: Eagle River,
Elevation: 1640 ft
Nearby Weather Stations

Elev 1640 ft 45.93 °N, 89.27 °W | Updated 17 minutes ago

Overcast
Overcast
6 °F
Feels Like -9 °F
N
10
Wind Variable Wind from East

Today
High -- | Low -- °F
--% Chance of Precip.
Yesterday
High -- | Low -- °F
Precip. -- in
7:19 AM 5:02 PM
Waxing Gibbous, 93% visible
Pressure 30.27 in
Visibility 10.0 miles
Clouds Overcast 1800 ft
Windchill -9 °F
Dew Point -2 °F
Humidity 69%
Rainfall 0.00 in
Snow Depth Not available.
UV 0 out of 12
Pollen .10 out of 12
Air Quality Not available.
Flu Activity Not available.
METAR KEGV 010630Z AUTO 08009KT 10SM OVC018 M14/M19 A3027 RMK AO2 T11451190

More Conditions Fewer Conditions

Pressure 30.27 in
Visibility 10.0 miles
Clouds Overcast 1800 ft
Windchill -9 °F
Dew Point -2 °F
Humidity 69%
Rainfall 0.00 in
Snow Depth Not available.
UV 0 out of 12
Pollen .10 out of 12
Air Quality Not available.
Flu Activity Not available.
METAR KEGV 010630Z AUTO 08009KT 10SM OVC018 M14/M19 A3027 RMK AO2 T11451190

More Conditions Fewer Conditions

10-Day Weather Forecast

Almanac

Astronomy

Feb. 01, 2015 Rise Set
Actual Time
Civil Twilight
Nautical Twilight
Astronomical Twilight
Moon
Length of Visible Light
Length of Day
Tomorrow will be .
, % of the Moon is Illuminated

Today's Extremes

State Highs State Lows

Community

WunderPhotos

Upload Photos

1,792,324 photos uploaded!

WunderBlogs® & News

Nearby

Air Quality

  Air Quality AQ Index Pollutant
Not available.

Snow Depth

Station Depth Elevation

Earthquake Activity

City Distance Mag. Time & Date
Minimum magnitude displayed is 2.5.

Coastal Water Temperatures

Place Temperature

Nearby Weather Stations